Time;durP1;ratioP1;P1;durP2;ratioP2;P2;SDS_P1;SDS_P2;PMS_P1;PMS_P2;Temp;Humidity;BMP_temperature;BMP_pressure;BME280_temperature;BME280_humidity;BME280_pressure;Samples;Min_cycle;Max_cycle;Signal;HPM_P1;HPM_P2
2021/10/12 00:01:57;;;;;;;2.40;0.60;;;;;;;8.49;98.70;101371.77;115774;1192;59632;-80
2021/10/12 00:04:23;;;;;;;6.60;1.10;;;;;;;8.50;98.55;101371.02;115703;1191;58973;-81
2021/10/12 00:06:50;;;;;;;3.00;0.90;;;;;;;8.50;98.34;101369.23;115785;1191;60392;-81
2021/10/12 00:09:16;;;;;;;5.10;1.00;;;;;;;8.49;98.06;101374.02;115782;1192;73398;-81
2021/10/12 00:11:43;;;;;;;4.40;1.10;;;;;;;8.46;97.95;101366.78;115766;1192;71248;-81
2021/10/12 00:14:10;;;;;;;9.10;0.90;;;;;;;8.43;98.15;101367.58;115789;1192;59020;-80
2021/10/12 00:16:36;;;;;;;2.80;0.50;;;;;;;8.42;98.12;101368.36;115752;1192;59321;-80
2021/10/12 00:19:03;;;;;;;3.00;0.90;;;;;;;8.40;98.20;101367.85;115780;1192;58923;-80
2021/10/12 00:21:30;;;;;;;3.80;1.00;;;;;;;8.41;98.26;101358.83;115737;1192;74886;-78
2021/10/12 00:23:56;;;;;;;4.30;1.10;;;;;;;8.41;98.35;101352.42;115851;1192;58984;-80
2021/10/12 00:26:23;;;;;;;3.40;0.90;;;;;;;8.42;98.17;101350.19;115653;1192;73626;-80
2021/10/12 00:28:50;;;;;;;2.50;0.70;;;;;;;8.43;97.93;101351.92;115762;1192;61964;-80
2021/10/12 00:31:16;;;;;;;8.10;1.80;;;;;;;8.42;97.81;101344.94;115743;1192;60012;-80
2021/10/12 00:33:43;;;;;;;5.20;0.80;;;;;;;8.42;97.92;101342.33;115840;1191;74530;-81
2021/10/12 00:36:10;;;;;;;6.70;0.50;;;;;;;8.41;97.76;101340.42;115739;1192;59719;-79
2021/10/12 00:38:36;;;;;;;4.00;1.10;;;;;;;8.43;97.50;101332.88;115485;1192;73899;-80
2021/10/12 00:41:07;;;;;;;6.70;1.00;;;;;;;8.44;97.57;101328.70;115812;1192;62836;-80
2021/10/12 00:43:34;;;;;;;3.90;0.70;;;;;;;8.45;97.68;101322.80;115804;1192;60326;-80
2021/10/12 00:46:01;;;;;;;6.20;0.80;;;;;;;8.45;97.76;101315.95;115818;1192;75593;-79
2021/10/12 00:48:28;;;;;;;6.00;0.90;;;;;;;8.45;97.59;101314.66;115762;1192;70723;-80
2021/10/12 00:50:55;;;;;;;3.80;0.90;;;;;;;8.47;97.53;101314.64;115782;1191;73596;-79
2021/10/12 00:53:21;;;;;;;5.70;0.80;;;;;;;8.48;97.56;101317.36;115797;1192;63126;-80
2021/10/12 00:55:48;;;;;;;4.00;0.90;;;;;;;8.49;97.40;101315.77;115799;1184;61393;-80
2021/10/12 00:58:15;;;;;;;8.80;0.90;;;;;;;8.50;97.32;101313.37;115807;1191;75755;-80
2021/10/12 01:00:42;;;;;;;7.40;1.50;;;;;;;8.51;97.28;101305.29;115768;1191;70911;-80
2021/10/12 01:03:09;;;;;;;3.90;0.60;;;;;;;8.52;96.98;101302.73;115784;1192;72355;-80
2021/10/12 01:05:37;;;;;;;4.80;0.70;;;;;;;8.53;97.14;101302.27;115748;1192;61709;-80
2021/10/12 01:08:04;;;;;;;3.00;0.90;;;;;;;8.53;96.98;101297.71;115656;1192;61255;-80
2021/10/12 01:10:32;;;;;;;3.70;0.70;;;;;;;8.53;96.48;101291.50;115798;1192;76155;-80
2021/10/12 01:13:01;;;;;;;4.00;0.60;;;;;;;8.54;96.47;101289.48;115147;1192;70970;-78
2021/10/12 01:15:28;;;;;;;7.00;1.20;;;;;;;8.53;96.67;101278.61;114340;1192;72568;-78
2021/10/12 01:17:54;;;;;;;4.80;0.90;;;;;;;8.54;96.54;101272.07;114285;1192;62923;-78
2021/10/12 01:20:22;;;;;;;5.30;0.80;;;;;;;8.53;96.77;101271.20;114530;1192;61045;-77
2021/10/12 01:22:49;;;;;;;2.40;0.50;;;;;;;8.55;96.68;101271.63;114710;1192;74634;-78
2021/10/12 01:25:16;;;;;;;3.20;0.70;;;;;;;8.55;96.42;101269.31;114767;1192;60911;-79
2021/10/12 01:27:44;;;;;;;4.50;1.00;;;;;;;8.55;96.47;101266.49;115016;1192;73101;-80
2021/10/12 01:30:12;;;;;;;4.10;1.00;;;;;;;8.56;96.51;101265.16;115438;1192;61912;-78
2021/10/12 01:32:41;;;;;;;2.80;0.50;;;;;;;8.57;96.60;101267.48;115384;1191;61016;-78
2021/10/12 01:35:09;;;;;;;3.50;0.70;;;;;;;8.59;96.62;101262.81;115307;1192;75578;-79
2021/10/12 01:37:35;;;;;;;4.20;0.70;;;;;;;8.59;96.60;101252.57;115427;1192;72043;-80
2021/10/12 01:40:05;;;;;;;2.90;0.70;;;;;;;8.59;96.55;101243.58;115571;1192;72595;-80
2021/10/12 01:42:33;;;;;;;3.20;0.50;;;;;;;8.59;96.33;101242.48;115735;1192;62924;-80
2021/10/12 01:45:02;;;;;;;5.50;1.70;;;;;;;8.60;96.32;101244.89;115808;1192;60194;-80
2021/10/12 01:47:29;;;;;;;5.40;0.90;;;;;;;8.61;96.42;101237.38;115695;1192;73662;-79
2021/10/12 01:49:56;;;;;;;6.50;1.30;;;;;;;8.63;96.30;101234.41;115806;1191;70969;-79
2021/10/12 01:52:24;;;;;;;3.30;0.60;;;;;;;8.64;96.20;101231.27;115759;1192;72706;-80
2021/10/12 01:54:50;;;;;;;5.30;0.90;;;;;;;8.64;95.84;101222.60;115693;1192;61982;-80
2021/10/12 01:57:18;;;;;;;2.70;0.90;;;;;;;8.64;95.84;101220.99;115727;1192;60085;-80
2021/10/12 01:59:46;;;;;;;3.00;0.70;;;;;;;8.65;95.75;101217.74;115744;1191;75598;-80
2021/10/12 02:02:13;;;;;;;4.20;1.20;;;;;;;8.66;95.51;101212.90;115671;1192;70975;-80
2021/10/12 02:04:40;;;;;;;1.20;0.60;;;;;;;8.66;95.41;101205.83;115742;1191;74039;-80
2021/10/12 02:07:06;;;;;;;4.40;1.00;;;;;;;8.66;95.39;101194.74;115704;1192;59095;-80
2021/10/12 02:09:33;;;;;;;4.70;0.90;;;;;;;8.63;95.21;101187.78;115803;1191;59171;-80
2021/10/12 02:12:00;;;;;;;7.00;0.50;;;;;;;8.60;95.15;101185.86;115791;1192;75279;-80
2021/10/12 02:14:26;;;;;;;5.30;0.70;;;;;;;8.54;95.14;101186.54;115822;1192;70940;-80
2021/10/12 02:16:53;;;;;;;5.90;0.70;;;;;;;8.50;95.10;101192.04;115765;1192;72654;-80
2021/10/12 02:19:19;;;;;;;3.90;0.60;;;;;;;8.43;95.24;101189.40;115725;1192;62922;-81
2021/10/12 02:21:46;;;;;;;6.90;1.00;;;;;;;8.37;95.21;101188.48;115812;1191;59893;-81
2021/10/12 02:24:12;;;;;;;3.30;0.60;;;;;;;8.33;95.86;101183.95;115857;1191;59257;-81
2021/10/12 02:26:39;;;;;;;2.30;0.80;;;;;;;8.31;95.83;101186.12;115775;1192;69542;-81
2021/10/12 02:29:06;;;;;;;4.80;0.70;;;;;;;8.28;96.06;101179.84;115801;1192;59049;-81
2021/10/12 02:31:32;;;;;;;5.00;0.80;;;;;;;8.28;96.01;101173.76;115771;1192;62095;-81
2021/10/12 02:33:59;;;;;;;3.10;0.80;;;;;;;8.27;96.09;101171.17;115803;1192;60170;-81
2021/10/12 02:36:26;;;;;;;3.10;0.40;;;;;;;8.28;96.03;101167.39;115405;1192;74642;-81
2021/10/12 02:38:52;;;;;;;3.80;1.00;;;;;;;8.27;96.53;101167.24;115793;1191;69577;-81
2021/10/12 02:41:19;;;;;;;3.60;0.60;;;;;;;8.27;96.20;101163.09;115786;1191;74007;-81
2021/10/12 02:43:46;;;;;;;2.70;0.50;;;;;;;8.31;96.09;101163.25;115806;1192;61592;-81
2021/10/12 02:46:12;;;;;;;2.80;0.60;;;;;;;8.32;95.88;101158.91;115782;1192;61672;-81
2021/10/12 02:48:39;;;;;;;3.20;0.50;;;;;;;8.35;95.68;101154.91;115826;1192;75683;-81
2021/10/12 02:51:06;;;;;;;4.80;0.70;;;;;;;8.37;95.64;101151.02;115830;1191;71483;-81
2021/10/12 02:53:32;;;;;;;5.30;0.80;;;;;;;8.37;95.51;101150.94;115792;1192;72524;-82
2021/10/12 02:55:59;;;;;;;2.50;0.50;;;;;;;8.39;95.39;101145.64;115806;1191;62109;-82
2021/10/12 02:58:25;;;;;;;4.20;0.60;;;;;;;8.40;95.35;101141.89;115814;1191;61415;-81
2021/10/12 03:00:52;;;;;;;5.30;1.00;;;;;;;8.42;95.06;101136.41;115705;1192;75652;-81
2021/10/12 03:03:19;;;;;;;6.80;0.70;;;;;;;8.43;95.15;101130.72;115795;1192;71086;-81
2021/10/12 03:05:46;;;;;;;6.20;1.00;;;;;;;8.46;94.69;101125.86;115799;1192;59098;-82
2021/10/12 03:08:12;;;;;;;3.70;0.90;;;;;;;8.48;94.44;101131.08;115786;1191;63583;-82
2021/10/12 03:10:39;;;;;;;5.80;0.80;;;;;;;8.50;94.48;101131.98;115785;1191;60269;-81
2021/10/12 03:13:06;;;;;;;5.30;0.80;;;;;;;8.50;94.25;101130.90;115741;1192;60659;-81
2021/10/12 03:15:33;;;;;;;3.90;1.10;;;;;;;8.51;94.12;101129.02;115792;1192;70001;-81
2021/10/12 03:18:00;;;;;;;1.90;0.70;;;;;;;8.53;94.09;101132.65;115757;1192;73994;-80
2021/10/12 03:20:26;;;;;;;3.40;0.60;;;;;;;8.54;93.77;101123.38;115819;1192;61918;-81
2021/10/12 03:22:53;;;;;;;7.20;1.10;;;;;;;8.55;93.97;101111.31;115764;1192;61243;-81
2021/10/12 03:25:20;;;;;;;4.70;0.90;;;;;;;8.55;93.83;101103.41;115838;1191;75612;-81
2021/10/12 03:27:46;;;;;;;5.50;0.80;;;;;;;8.55;93.65;101095.29;115733;1192;59255;-81
2021/10/12 03:30:13;;;;;;;5.20;0.80;;;;;;;8.56;93.73;101091.19;115712;1191;59192;-81
2021/10/12 03:32:39;;;;;;;3.80;0.90;;;;;;;8.56;93.52;101094.11;115801;1192;63307;-81
2021/10/12 03:35:07;;;;;;;3.60;0.90;;;;;;;8.57;93.87;101084.16;115856;1192;58983;-80
2021/10/12 03:37:33;;;;;;;12.40;1.30;;;;;;;8.58;93.49;101083.05;115692;1192;75380;-80
2021/10/12 03:40:00;;;;;;;3.50;1.00;;;;;;;8.60;93.57;101077.96;115741;1191;71024;-80
2021/10/12 03:42:27;;;;;;;3.50;1.00;;;;;;;8.59;93.83;101069.90;115797;1192;73571;-80
2021/10/12 03:44:53;;;;;;;4.00;1.20;;;;;;;8.60;93.66;101063.52;115849;1191;63446;-80
2021/10/12 03:47:20;;;;;;;5.50;1.10;;;;;;;8.61;93.88;101064.59;115808;1192;60389;-81
2021/10/12 03:49:46;;;;;;;2.70;0.90;;;;;;;8.63;94.06;101065.06;115937;1191;74552;-80
2021/10/12 03:52:13;;;;;;;4.80;1.80;;;;;;;8.65;93.93;101056.74;115883;1192;72204;-80
2021/10/12 03:54:39;;;;;;;2.50;0.80;;;;;;;8.67;94.28;101062.08;115837;1192;73809;-80
2021/10/12 03:57:06;;;;;;;4.50;1.10;;;;;;;8.67;94.33;101064.70;115755;1191;62610;-80
2021/10/12 03:59:32;;;;;;;2.70;0.90;;;;;;;8.67;94.75;101058.34;115810;1192;59192;-81
2021/10/12 04:02:00;;;;;;;4.40;1.30;;;;;;;8.67;94.67;101064.03;115813;1192;58928;-80
2021/10/12 04:04:27;;;;;;;1.90;0.90;;;;;;;8.64;95.20;101058.83;115844;1191;71132;-78
2021/10/12 04:06:53;;;;;;;5.60;1.20;;;;;;;8.62;95.85;101057.25;115754;1191;72542;-79
2021/10/12 04:09:20;;;;;;;3.30;1.30;;;;;;;8.60;96.18;101047.79;115814;1191;62144;-80
2021/10/12 04:11:46;;;;;;;4.20;1.40;;;;;;;8.58;96.52;101044.31;115800;1191;58873;-80
2021/10/12 04:14:13;;;;;;;6.60;1.40;;;;;;;8.55;96.84;101042.23;115762;1191;74641;-81
2021/10/12 04:16:43;;;;;;;3.30;1.30;;;;;;;8.54;97.19;101041.48;115742;1192;71646;-81
2021/10/12 04:19:10;;;;;;;3.40;1.70;;;;;;;8.52;97.56;101041.09;115513;1192;73127;-80
2021/10/12 04:21:37;;;;;;;2.80;1.10;;;;;;;8.52;97.81;101031.42;115850;1192;62369;-80
2021/10/12 04:24:04;;;;;;;7.90;1.60;;;;;;;8.52;97.81;101031.07;115844;1191;61481;-80
2021/10/12 04:26:30;;;;;;;5.20;1.40;;;;;;;8.52;98.34;101028.77;115823;1192;74651;-83
2021/10/12 04:28:57;;;;;;;5.60;1.30;;;;;;;8.52;98.84;101030.91;115885;1192;58988;-83
2021/10/12 04:31:24;;;;;;;8.90;1.80;;;;;;;8.51;99.29;101030.82;115811;1191;74044;-81
2021/10/12 04:33:50;;;;;;;5.70;1.30;;;;;;;8.50;99.87;101030.73;115834;1192;63234;-80
2021/10/12 04:36:17;;;;;;;3.10;0.90;;;;;;;8.50;100.00;101026.73;115813;1191;59252;-84
2021/10/12 04:38:44;;;;;;;2.40;1.00;;;;;;;8.51;100.00;101024.48;115755;1191;75687;-83
2021/10/12 04:41:10;;;;;;;5.60;1.20;;;;;;;8.53;100.00;101037.69;115794;1192;59967;-77
2021/10/12 04:43:37;;;;;;;4.10;1.30;;;;;;;8.55;100.00;101027.63;115770;1191;58858;-78
2021/10/12 04:46:03;;;;;;;4.00;1.10;;;;;;;8.56;100.00;101019.02;115742;1183;61609;-78
2021/10/12 04:48:30;;;;;;;7.00;1.20;;;;;;;8.57;100.00;101013.79;115827;1192;62119;-78
2021/10/12 04:50:57;;;;;;;4.60;1.60;;;;;;;8.59;100.00;101015.13;115730;1192;75794;-78
2021/10/12 04:53:23;;;;;;;8.00;2.40;;;;;;;8.60;100.00;101016.45;115792;1191;71006;-79
2021/10/12 04:55:50;;;;;;;3.90;1.30;;;;;;;8.59;100.00;101010.01;115411;1192;73004;-79
2021/10/12 04:58:17;;;;;;;3.50;1.30;;;;;;;8.59;100.00;101013.70;114873;1192;62026;-78
2021/10/12 05:00:44;;;;;;;4.50;1.40;;;;;;;8.57;100.00;101010.15;115055;1192;61262;-79
2021/10/12 05:03:10;;;;;;;4.50;1.30;;;;;;;8.55;100.00;101006.60;115368;1191;74574;-79
2021/10/12 05:05:38;;;;;;;4.30;1.90;;;;;;;8.54;100.00;100999.83;115607;1183;69966;-79
2021/10/12 05:08:05;;;;;;;3.90;1.20;;;;;;;8.53;100.00;101002.05;115621;1191;60896;-79
2021/10/12 05:10:32;;;;;;;7.20;2.90;;;;;;;8.54;100.00;101000.41;115434;1192;60554;-80
2021/10/12 05:12:59;;;;;;;8.30;2.00;;;;;;;8.53;100.00;100997.13;115224;1192;60171;-76
2021/10/12 05:15:28;;;;;;;7.90;2.30;;;;;;;8.54;100.00;100996.48;115492;1192;75524;-76
2021/10/12 05:17:56;;;;;;;6.10;1.70;;;;;;;8.57;100.00;100999.54;115623;1192;71136;-77
2021/10/12 05:20:23;;;;;;;6.20;1.50;;;;;;;8.58;100.00;100985.91;115513;1192;72624;-77
2021/10/12 05:22:50;;;;;;;10.10;3.50;;;;;;;8.57;100.00;100980.30;115673;1191;60494;-76
2021/10/12 05:25:16;;;;;;;4.60;1.80;;;;;;;8.56;100.00;100983.21;115616;1192;60012;-73
2021/10/12 05:27:44;;;;;;;4.30;1.60;;;;;;;8.55;100.00;100986.38;115678;1191;75045;-72
2021/10/12 05:30:11;;;;;;;6.30;3.00;;;;;;;8.55;100.00;100980.39;115752;1191;70571;-73
2021/10/12 05:32:40;;;;;;;8.80;3.30;;;;;;;8.55;100.00;100981.42;115694;1192;72575;-73
2021/10/12 05:35:08;;;;;;;16.10;4.70;;;;;;;8.56;100.00;100978.54;115651;1192;61997;-73
2021/10/12 05:37:36;;;;;;;5.10;1.90;;;;;;;8.55;100.00;100974.41;115571;1192;60224;-73
2021/10/12 05:40:04;;;;;;;18.90;3.20;;;;;;;8.54;100.00;100976.27;115642;1192;75655;-73
2021/10/12 05:42:30;;;;;;;4.70;1.70;;;;;;;8.53;100.00;100972.58;115458;1193;70618;-73
2021/10/12 05:44:57;;;;;;;4.20;2.00;;;;;;;8.53;100.00;100968.18;115755;1192;72637;-73
2021/10/12 05:47:23;;;;;;;9.40;3.40;;;;;;;8.55;100.00;100965.42;115509;1192;59345;-72
2021/10/12 05:49:50;;;;;;;12.70;4.80;;;;;;;8.55;100.00;100961.69;115723;1192;60246;-73
2021/10/12 05:52:19;;;;;;;6.50;3.10;;;;;;;8.55;100.00;100962.02;115715;1192;59020;-73
2021/10/12 05:54:51;;;;;;;8.90;3.50;;;;;;;8.56;100.00;100958.58;115712;1192;70967;-74
2021/10/12 05:57:35;;;;;;;7.30;2.90;;;;;;;8.57;100.00;100951.76;115751;1176;72722;-74
2021/10/12 06:00:03;;;;;;;9.20;4.40;;;;;;;8.58;100.00;100957.89;115633;1192;62994;-74
2021/10/12 06:02:30;;;;;;;10.00;4.20;;;;;;;8.59;100.00;100964.69;115677;1192;59329;-74
2021/10/12 06:04:57;;;;;;;6.40;2.80;;;;;;;8.59;100.00;100965.35;115619;1192;74623;-74
2021/10/12 06:07:23;;;;;;;13.00;5.50;;;;;;;8.61;100.00;100961.31;115654;1192;59018;-74
2021/10/12 06:09:50;;;;;;;9.30;4.20;;;;;;;8.62;100.00;100962.05;115655;1192;58967;-74
2021/10/12 06:12:16;;;;;;;8.50;4.10;;;;;;;8.63;100.00;100959.51;115624;1192;59029;-74
2021/10/12 06:14:43;;;;;;;10.40;3.90;;;;;;;8.64;100.00;100967.48;115684;1192;59313;-73
2021/10/12 06:17:10;;;;;;;15.80;4.80;;;;;;;8.66;100.00;100970.17;115694;1192;74601;-74
2021/10/12 06:19:37;;;;;;;10.60;3.60;;;;;;;8.65;100.00;100979.25;115579;1192;71144;-75
2021/10/12 06:22:03;;;;;;;10.10;3.90;;;;;;;8.64;100.00;100970.83;115648;1192;59013;-73
2021/10/12 06:24:30;;;;;;;12.80;5.20;;;;;;;8.63;100.00;100971.81;115697;1191;59053;-73
2021/10/12 06:26:56;;;;;;;7.70;3.90;;;;;;;8.63;100.00;100964.27;115734;1191;59084;-74
2021/10/12 06:29:23;;;;;;;9.20;4.30;;;;;;;8.64;100.00;100966.33;115642;1192;74782;-74
2021/10/12 06:31:49;;;;;;;17.10;4.30;;;;;;;8.64;100.00;100970.53;115636;1192;71313;-75
2021/10/12 06:34:16;;;;;;;16.10;4.70;;;;;;;8.63;100.00;100968.84;115725;1191;58989;-75
2021/10/12 06:36:45;;;;;;;7.70;3.00;;;;;;;8.63;100.00;100968.16;115755;1192;62029;-73
2021/10/12 06:39:12;;;;;;;7.80;2.70;;;;;;;8.62;100.00;100962.58;115639;1192;60072;-73
2021/10/12 06:41:39;;;;;;;6.60;2.10;;;;;;;8.61;100.00;100963.93;115732;1191;74641;-73
2021/10/12 06:44:13;;;;;;;4.40;1.80;;;;;;;8.56;100.00;100970.23;115663;1192;71160;-74
2021/10/12 06:46:39;;;;;;;3.60;1.50;;;;;;;8.52;100.00;100972.73;115620;1192;72590;-74
2021/10/12 06:49:06;;;;;;;3.60;1.80;;;;;;;8.48;100.00;100978.95;115640;1192;59224;-75
2021/10/12 06:51:32;;;;;;;4.80;1.60;;;;;;;8.45;100.00;100977.67;115680;1192;59476;-74
2021/10/12 06:54:12;;;;;;;3.80;1.30;;;;;;;8.43;100.00;100969.13;115615;1192;74589;-75
2021/10/12 06:56:39;;;;;;;5.40;1.20;;;;;;;8.40;100.00;100970.80;115719;1192;59010;-73
2021/10/12 06:59:05;;;;;;;2.50;1.10;;;;;;;8.37;100.00;100970.83;115770;1192;72545;-73
2021/10/12 07:01:32;;;;;;;3.60;1.20;;;;;;;8.35;100.00;100967.16;115729;1192;59124;-73
2021/10/12 07:03:58;;;;;;;3.20;1.00;;;;;;;8.34;100.00;100967.27;115742;1192;61277;-73
2021/10/12 07:06:25;;;;;;;3.60;1.30;;;;;;;8.35;100.00;100966.16;115710;1191;59207;-73
2021/10/12 07:08:51;;;;;;;2.00;1.20;;;;;;;8.37;100.00;100967.50;115787;1192;59005;-72
2021/10/12 07:11:18;;;;;;;3.90;1.70;;;;;;;8.37;100.00;100969.64;115743;1192;59463;-73
2021/10/12 07:13:47;;;;;;;3.60;1.80;;;;;;;8.38;100.00;100972.87;115834;1192;62124;-73
2021/10/12 07:16:15;;;;;;;2.70;1.30;;;;;;;8.39;100.00;100970.36;115693;1191;60938;-72
2021/10/12 07:18:42;;;;;;;4.90;2.20;;;;;;;8.38;100.00;100972.75;115762;1191;75958;-73
2021/10/12 07:21:09;;;;;;;3.10;1.30;;;;;;;8.38;100.00;100976.04;115760;1192;71989;-73
2021/10/12 07:23:35;;;;;;;5.00;1.50;;;;;;;8.39;100.00;100972.41;115713;1192;72681;-73
2021/10/12 07:26:02;;;;;;;3.10;1.30;;;;;;;8.41;100.00;100975.11;115776;1192;59039;-73
2021/10/12 07:28:28;;;;;;;5.30;1.50;;;;;;;8.41;100.00;100972.14;115747;1191;61308;-72
2021/10/12 07:30:55;;;;;;;6.60;1.20;;;;;;;8.42;100.00;100972.51;115671;1192;74686;-72
2021/10/12 07:33:21;;;;;;;3.70;1.70;;;;;;;8.46;100.00;100972.79;115732;1192;72067;-72
2021/10/12 07:35:55;;;;;;;8.80;2.20;;;;;;;8.50;100.00;100973.68;115668;1192;73189;-72
2021/10/12 07:38:22;;;;;;;9.00;3.40;;;;;;;8.51;100.00;100972.36;115573;1192;61690;-73
2021/10/12 07:40:49;;;;;;;6.30;2.70;;;;;;;8.52;100.00;100964.84;115539;1192;59567;-73
2021/10/12 07:43:16;;;;;;;6.80;1.90;;;;;;;8.56;100.00;100963.21;115723;1192;74441;-74
2021/10/12 07:45:43;;;;;;;8.10;2.00;;;;;;;8.61;100.00;100963.06;115671;1192;72011;-74
2021/10/12 07:48:10;;;;;;;4.40;2.00;;;;;;;8.63;100.00;100959.45;115696;1192;71584;-74
2021/10/12 07:50:37;;;;;;;5.80;2.20;;;;;;;8.66;100.00;100949.16;115767;1192;62054;-74
2021/10/12 07:53:04;;;;;;;7.30;3.00;;;;;;;8.69;100.00;100935.95;115769;1192;58800;-74
2021/10/12 07:55:52;;;;;;;9.90;2.30;;;;;;;8.71;100.00;100931.20;115732;1192;74699;-74
2021/10/12 07:58:19;;;;;;;7.70;2.50;;;;;;;8.70;100.00;100935.45;115797;1192;72462;-74
2021/10/12 08:00:46;;;;;;;19.00;3.50;;;;;;;8.72;100.00;100937.95;115737;1192;73848;-74
2021/10/12 08:03:14;;;;;;;12.60;2.40;;;;;;;8.75;100.00;100942.27;115802;1192;62319;-74
2021/10/12 08:05:41;;;;;;;8.20;1.90;;;;;;;8.76;100.00;100949.67;115783;1191;59298;-74
2021/10/12 08:08:07;;;;;;;8.40;2.30;;;;;;;8.77;100.00;100952.04;115697;1192;75633;-74
2021/10/12 08:10:36;;;;;;;3.90;1.60;;;;;;;8.76;100.00;100957.63;115716;1192;72075;-74
2021/10/12 08:13:05;;;;;;;3.30;1.60;;;;;;;8.75;100.00;100955.23;115722;1192;73624;-75
2021/10/12 08:15:33;;;;;;;3.10;1.80;;;;;;;8.76;100.00;100955.00;115783;1192;63395;-75
2021/10/12 08:18:00;;;;;;;5.70;1.90;;;;;;;8.76;100.00;100953.50;115774;1191;61275;-74
2021/10/12 08:20:27;;;;;;;4.40;2.20;;;;;;;8.78;100.00;100950.38;115832;1191;75966;-74
2021/10/12 08:22:54;;;;;;;3.70;2.30;;;;;;;8.80;100.00;100945.37;115782;1192;72434;-74
2021/10/12 08:25:21;;;;;;;6.90;2.70;;;;;;;8.86;100.00;100944.86;115841;1191;72553;-74
2021/10/12 08:27:48;;;;;;;9.70;2.90;;;;;;;8.92;100.00;100942.91;115734;1192;61579;-74
2021/10/12 08:30:14;;;;;;;5.90;2.90;;;;;;;9.00;100.00;100941.92;115776;1192;59090;-74
2021/10/12 08:32:43;;;;;;;5.80;2.90;;;;;;;9.14;100.00;100943.11;115774;1192;75718;-74
2021/10/12 08:35:11;;;;;;;8.80;4.10;;;;;;;9.29;100.00;100944.45;115748;1192;71994;-73
2021/10/12 08:37:39;;;;;;;10.20;3.80;;;;;;;9.45;100.00;100947.48;115717;1192;72663;-74
2021/10/12 08:40:16;;;;;;;9.20;3.70;;;;;;;9.61;100.00;100944.77;115798;1192;61633;-74
2021/10/12 08:42:48;;;;;;;11.20;4.90;;;;;;;9.72;99.96;100945.23;115792;1192;60793;-75
2021/10/12 08:45:16;;;;;;;9.90;3.80;;;;;;;9.79;99.88;100945.45;115826;1192;74516;-75
2021/10/12 08:47:44;;;;;;;11.70;3.90;;;;;;;9.85;99.68;100945.91;115801;1191;71269;-74
2021/10/12 08:50:15;;;;;;;7.60;4.10;;;;;;;9.91;99.18;100944.23;115752;1191;72594;-74
2021/10/12 08:52:49;;;;;;;11.30;4.30;;;;;;;9.94;98.68;100948.50;115749;1192;61972;-74
2021/10/12 08:55:17;;;;;;;7.50;3.70;;;;;;;9.93;97.41;100953.36;115732;1192;61055;-74
2021/10/12 08:57:45;;;;;;;7.70;3.50;;;;;;;9.96;97.70;100949.20;115710;1192;75634;-74
2021/10/12 09:00:18;;;;;;;8.20;3.60;;;;;;;10.01;97.97;100940.02;115667;1191;72010;-73
2021/10/12 09:03:29;;;;;;;9.10;3.00;;;;;;;10.09;97.33;100945.48;115607;1191;72617;-74
2021/10/12 09:06:02;;;;;;;8.60;2.90;;;;;;;10.17;96.03;100943.20;115775;1192;63534;-74
2021/10/12 09:08:32;;;;;;;6.90;3.70;;;;;;;10.24;95.57;100938.80;115637;1192;60017;-74
2021/10/12 09:10:59;;;;;;;9.30;3.50;;;;;;;10.30;94.73;100933.74;115706;1192;75725;-75
2021/10/12 09:13:26;;;;;;;11.00;4.00;;;;;;;10.36;94.89;100933.02;115726;1192;72610;-75
2021/10/12 09:16:10;;;;;;;9.10;2.90;;;;;;;10.46;95.29;100932.84;115655;1192;72313;-75
2021/10/12 09:18:45;;;;;;;8.30;2.30;;;;;;;10.56;95.23;100935.04;115707;1192;63249;-74
2021/10/12 09:21:13;;;;;;;11.40;4.70;;;;;;;10.61;94.67;100937.92;115695;1192;60391;-74
2021/10/12 09:23:44;;;;;;;13.30;4.40;;;;;;;10.66;94.70;100938.23;115821;1192;76034;-74
2021/10/12 09:26:25;;;;;;;23.90;6.00;;;;;;;10.72;93.20;100936.30;115769;1191;71141;-75
2021/10/12 09:29:06;;;;;;;17.40;5.30;;;;;;;10.84;93.43;100933.45;115722;1192;73712;-75
2021/10/12 09:31:36;;;;;;;18.40;4.00;;;;;;;11.01;92.41;100938.92;115686;1192;63137;-75
2021/10/12 09:34:05;;;;;;;11.50;4.40;;;;;;;11.09;91.87;100935.98;115797;1192;63968;-75
2021/10/12 09:36:34;;;;;;;31.00;6.10;;;;;;;11.21;90.00;100939.02;115635;1192;76001;-75
2021/10/12 09:39:02;;;;;;;11.40;4.20;;;;;;;11.29;88.63;100938.87;115760;1192;72269;-74
2021/10/12 09:41:29;;;;;;;11.00;4.10;;;;;;;11.37;88.65;100933.25;115618;1192;73452;-74
2021/10/12 09:44:12;;;;;;;7.90;3.60;;;;;;;11.50;87.68;100937.21;115643;1192;62862;-74
2021/10/12 09:46:41;;;;;;;13.30;5.10;;;;;;;11.75;89.16;100928.84;115719;1192;60308;-74
2021/10/12 09:49:13;;;;;;;11.80;4.80;;;;;;;11.87;87.29;100931.56;115748;1192;75561;-75
2021/10/12 09:52:00;;;;;;;10.30;3.60;;;;;;;11.94;84.57;100930.89;115608;1192;72579;-75
2021/10/12 09:54:30;;;;;;;8.10;3.10;;;;;;;12.01;82.11;100930.48;115704;1192;73820;-75
2021/10/12 09:56:58;;;;;;;10.20;3.00;;;;;;;12.03;82.37;100927.89;115794;1192;62177;-74
2021/10/12 09:59:26;;;;;;;7.90;2.80;;;;;;;12.09;82.51;100931.77;115819;1191;60087;-75
2021/10/12 10:01:54;;;;;;;11.20;2.60;;;;;;;12.17;82.10;100928.54;115830;1192;75932;-75
2021/10/12 10:04:23;;;;;;;7.70;2.20;;;;;;;12.22;81.80;100923.02;115796;1192;72192;-75
2021/10/12 10:06:52;;;;;;;8.10;2.60;;;;;;;12.42;82.04;100920.54;115770;1192;73780;-75
2021/10/12 10:09:21;;;;;;;15.60;3.60;;;;;;;12.59;79.25;100922.95;115817;1192;62851;-75
2021/10/12 10:11:48;;;;;;;7.30;2.00;;;;;;;12.56;78.52;100921.89;115770;1192;60186;-75
2021/10/12 10:14:17;;;;;;;7.00;2.30;;;;;;;12.51;78.29;100914.64;115792;1192;76305;-76
2021/10/12 10:16:46;;;;;;;10.80;3.50;;;;;;;12.46;79.14;100913.48;115793;1192;71062;-76
2021/10/12 10:19:20;;;;;;;10.30;3.20;;;;;;;12.40;78.56;100913.33;115791;1192;72726;-75
2021/10/12 10:21:47;;;;;;;8.30;2.60;;;;;;;12.34;78.67;100913.54;115748;1191;61872;-75
2021/10/12 10:24:28;;;;;;;5.90;2.60;;;;;;;12.17;77.44;100915.04;115712;1192;61935;-75
2021/10/12 10:26:55;;;;;;;9.00;2.50;;;;;;;12.14;78.19;100914.94;115799;1192;74448;-75
2021/10/12 10:29:36;;;;;;;12.00;2.60;;;;;;;12.29;79.79;100908.55;115762;1191;60401;-76
2021/10/12 10:32:22;;;;;;;10.70;2.80;;;;;;;12.61;79.30;100907.63;115763;1191;72538;-77
2021/10/12 10:35:00;;;;;;;5.90;1.90;;;;;;;12.71;77.64;100907.11;115729;1191;61631;-78
2021/10/12 10:37:30;;;;;;;8.90;2.70;;;;;;;12.66;76.97;100902.61;115791;1191;60725;-78
2021/10/12 10:40:27;;;;;;;8.50;2.80;;;;;;;12.67;78.08;100902.67;115803;1191;74754;-79
2021/10/12 10:42:56;;;;;;;10.80;2.20;;;;;;;12.52;77.13;100902.63;115799;1186;71692;-79
2021/10/12 10:45:40;;;;;;;7.20;1.90;;;;;;;12.37;76.95;100902.36;115810;1192;73500;-78
2021/10/12 10:48:10;;;;;;;6.70;3.10;;;;;;;12.33;77.02;100900.52;115764;1191;61049;-78
2021/10/12 10:50:36;;;;;;;7.60;2.30;;;;;;;12.54;78.08;100899.80;115838;1192;61036;-78
2021/10/12 10:53:06;;;;;;;9.70;2.60;;;;;;;12.77;75.65;100900.08;115798;1192;75672;-78
2021/10/12 10:55:35;;;;;;;7.00;2.30;;;;;;;12.84;74.96;100893.52;115809;1192;71310;-78
2021/10/12 10:58:09;;;;;;;5.70;2.30;;;;;;;13.01;73.66;100894.88;115820;1192;73568;-78
2021/10/12 11:00:46;;;;;;;7.80;2.80;;;;;;;13.25;71.49;100889.48;115856;1192;62987;-78
2021/10/12 11:03:28;;;;;;;5.40;2.20;;;;;;;13.51;71.20;100887.00;115828;1191;60683;-78
2021/10/12 11:05:56;;;;;;;5.60;2.30;;;;;;;13.83;71.29;100885.55;115799;1192;73431;-78
2021/10/12 11:08:27;;;;;;;5.80;1.90;;;;;;;14.04;68.97;100888.92;115783;1192;72079;-78
2021/10/12 11:10:56;;;;;;;5.20;1.60;;;;;;;14.10;64.24;100883.42;115802;1192;71625;-78
2021/10/12 11:13:31;;;;;;;5.60;1.50;;;;;;;14.08;62.10;100878.16;115752;1191;62130;-78
2021/10/12 11:16:01;;;;;;;7.60;2.20;;;;;;;14.27;62.10;100873.58;115821;1192;60456;-78
2021/10/12 11:18:30;;;;;;;9.60;1.80;;;;;;;14.37;61.14;100873.89;115813;1191;74069;-79
2021/10/12 11:21:02;;;;;;;1.40;0.70;;;;;;;14.42;60.87;100871.14;115794;1192;70340;-78
2021/10/12 11:23:30;;;;;;;7.60;1.30;;;;;;;14.37;59.36;100874.84;115747;1191;72133;-78
2021/10/12 11:26:09;;;;;;;3.70;1.20;;;;;;;14.32;60.80;100872.46;115725;1192;62118;-77